sensor_id;sensor_type;location;lat;lon;timestamp;P1;durP1;ratioP1;P2;durP2;ratioP2
71423;SDS011;59240;51.370;-0.486;2023-02-23T00:14:10;15.70;;;5.07;;
71423;SDS011;59240;51.370;-0.486;2023-02-23T00:16:37;12.18;;;4.82;;
71423;SDS011;59240;51.370;-0.486;2023-02-23T00:19:03;13.77;;;5.53;;
71423;SDS011;59240;51.370;-0.486;2023-02-23T00:21:35;16.45;;;4.85;;
71423;SDS011;59240;51.370;-0.486;2023-02-23T00:24:08;13.10;;;5.03;;
71423;SDS011;59240;51.370;-0.486;2023-02-23T00:26:58;14.48;;;4.60;;
71423;SDS011;59240;51.370;-0.486;2023-02-23T00:29:27;14.27;;;5.45;;
71423;SDS011;59240;51.370;-0.486;2023-02-23T00:31:53;15.43;;;5.77;;
71423;SDS011;59240;51.370;-0.486;2023-02-23T00:34:25;15.18;;;5.47;;
71423;SDS011;59240;51.370;-0.486;2023-02-23T00:36:55;14.85;;;5.43;;
71423;SDS011;59240;51.370;-0.486;2023-02-23T00:39:22;13.48;;;4.90;;
71423;SDS011;59240;51.370;-0.486;2023-02-23T00:41:54;14.50;;;5.32;;
71423;SDS011;59240;51.370;-0.486;2023-02-23T00:44:27;14.20;;;5.43;;
71423;SDS011;59240;51.370;-0.486;2023-02-23T00:47:00;16.33;;;5.40;;
71423;SDS011;59240;51.370;-0.486;2023-02-23T00:49:27;14.23;;;5.28;;
71423;SDS011;59240;51.370;-0.486;2023-02-23T00:51:54;13.90;;;6.03;;
71423;SDS011;59240;51.370;-0.486;2023-02-23T00:54:21;15.13;;;6.03;;
71423;SDS011;59240;51.370;-0.486;2023-02-23T00:56:47;15.00;;;5.43;;
71423;SDS011;59240;51.370;-0.486;2023-02-23T00:59:15;13.52;;;5.22;;
71423;SDS011;59240;51.370;-0.486;2023-02-23T01:01:42;14.32;;;5.70;;
71423;SDS011;59240;51.370;-0.486;2023-02-23T01:04:10;14.23;;;5.80;;
71423;SDS011;59240;51.370;-0.486;2023-02-23T01:06:37;15.38;;;6.00;;
71423;SDS011;59240;51.370;-0.486;2023-02-23T01:09:09;13.57;;;5.00;;
71423;SDS011;59240;51.370;-0.486;2023-02-23T01:11:39;13.85;;;5.40;;
71423;SDS011;59240;51.370;-0.486;2023-02-23T01:14:07;13.05;;;5.20;;
71423;SDS011;59240;51.370;-0.486;2023-02-23T01:16:35;12.77;;;5.40;;
71423;SDS011;59240;51.370;-0.486;2023-02-23T01:19:04;14.80;;;6.05;;
71423;SDS011;59240;51.370;-0.486;2023-02-23T01:21:32;10.13;;;3.97;;
71423;SDS011;59240;51.370;-0.486;2023-02-23T01:24:04;13.85;;;5.55;;
71423;SDS011;59240;51.370;-0.486;2023-02-23T01:26:35;11.40;;;4.50;;
71423;SDS011;59240;51.370;-0.486;2023-02-23T01:29:05;16.80;;;5.82;;
71423;SDS011;59240;51.370;-0.486;2023-02-23T01:31:39;13.90;;;5.78;;
71423;SDS011;59240;51.370;-0.486;2023-02-23T01:34:09;14.63;;;5.30;;
71423;SDS011;59240;51.370;-0.486;2023-02-23T01:36:40;15.27;;;5.95;;
71423;SDS011;59240;51.370;-0.486;2023-02-23T01:39:10;13.63;;;5.45;;
71423;SDS011;59240;51.370;-0.486;2023-02-23T01:41:39;16.60;;;5.88;;
71423;SDS011;59240;51.370;-0.486;2023-02-23T01:46:42;12.77;;;5.53;;
71423;SDS011;59240;51.370;-0.486;2023-02-23T01:49:12;13.65;;;5.22;;
71423;SDS011;59240;51.370;-0.486;2023-02-23T01:51:42;13.48;;;5.22;;
71423;SDS011;59240;51.370;-0.486;2023-02-23T01:54:20;16.02;;;4.97;;
71423;SDS011;59240;51.370;-0.486;2023-02-23T01:56:51;12.65;;;4.93;;
71423;SDS011;59240;51.370;-0.486;2023-02-23T01:59:28;10.27;;;3.97;;
71423;SDS011;59240;51.370;-0.486;2023-02-23T02:01:59;10.70;;;4.20;;
71423;SDS011;59240;51.370;-0.486;2023-02-23T02:04:27;9.60;;;3.90;;
71423;SDS011;59240;51.370;-0.486;2023-02-23T02:06:58;11.57;;;3.72;;
71423;SDS011;59240;51.370;-0.486;2023-02-23T02:09:29;9.18;;;3.30;;
71423;SDS011;59240;51.370;-0.486;2023-02-23T02:12:03;10.57;;;3.90;;
71423;SDS011;59240;51.370;-0.486;2023-02-23T02:14:33;7.20;;;2.17;;
71423;SDS011;59240;51.370;-0.486;2023-02-23T02:24:00;8.65;;;2.90;;
71423;SDS011;59240;51.370;-0.486;2023-02-23T02:29:37;9.32;;;3.53;;
71423;SDS011;59240;51.370;-0.486;2023-02-23T03:17:31;8.55;;;2.40;;
71423;SDS011;59240;51.370;-0.486;2023-02-23T03:23:42;12.30;;;3.00;;
71423;SDS011;59240;51.370;-0.486;2023-02-23T03:26:42;7.55;;;2.30;;
71423;SDS011;59240;51.370;-0.486;2023-02-23T03:29:39;8.00;;;2.20;;
71423;SDS011;59240;51.370;-0.486;2023-02-23T03:32:36;10.52;;;2.95;;
71423;SDS011;59240;51.370;-0.486;2023-02-23T03:38:41;7.90;;;2.22;;
71423;SDS011;59240;51.370;-0.486;2023-02-23T03:41:35;8.23;;;2.85;;
71423;SDS011;59240;51.370;-0.486;2023-02-23T03:44:28;8.02;;;2.58;;
71423;SDS011;59240;51.370;-0.486;2023-02-23T03:47:16;8.85;;;2.47;;
71423;SDS011;59240;51.370;-0.486;2023-02-23T03:50:05;9.40;;;2.73;;
71423;SDS011;59240;51.370;-0.486;2023-02-23T03:52:57;9.05;;;3.40;;
71423;SDS011;59240;51.370;-0.486;2023-02-23T03:55:47;8.13;;;2.58;;
71423;SDS011;59240;51.370;-0.486;2023-02-23T03:58:38;8.40;;;2.65;;
71423;SDS011;59240;51.370;-0.486;2023-02-23T04:01:28;9.00;;;3.05;;
71423;SDS011;59240;51.370;-0.486;2023-02-23T04:04:15;12.03;;;3.03;;
71423;SDS011;59240;51.370;-0.486;2023-02-23T04:21:09;7.50;;;2.80;;
71423;SDS011;59240;51.370;-0.486;2023-02-23T04:23:36;9.68;;;2.63;;
71423;SDS011;59240;51.370;-0.486;2023-02-23T04:26:05;10.95;;;2.97;;
71423;SDS011;59240;51.370;-0.486;2023-02-23T04:28:32;9.23;;;2.97;;
71423;SDS011;59240;51.370;-0.486;2023-02-23T04:30:59;7.65;;;2.80;;
71423;SDS011;59240;51.370;-0.486;2023-02-23T04:33:26;8.07;;;2.90;;
71423;SDS011;59240;51.370;-0.486;2023-02-23T04:35:52;8.80;;;3.17;;
71423;SDS011;59240;51.370;-0.486;2023-02-23T04:38:19;8.07;;;3.03;;
71423;SDS011;59240;51.370;-0.486;2023-02-23T04:40:47;7.10;;;2.28;;
71423;SDS011;59240;51.370;-0.486;2023-02-23T04:43:14;10.35;;;3.20;;
71423;SDS011;59240;51.370;-0.486;2023-02-23T04:45:40;10.73;;;3.47;;
71423;SDS011;59240;51.370;-0.486;2023-02-23T04:48:08;8.80;;;2.25;;
71423;SDS011;59240;51.370;-0.486;2023-02-23T04:50:34;9.10;;;2.75;;
71423;SDS011;59240;51.370;-0.486;2023-02-23T04:53:01;9.38;;;2.95;;
71423;SDS011;59240;51.370;-0.486;2023-02-23T04:55:28;9.90;;;2.97;;
71423;SDS011;59240;51.370;-0.486;2023-02-23T04:57:58;9.43;;;2.70;;
71423;SDS011;59240;51.370;-0.486;2023-02-23T05:00:26;7.95;;;2.90;;
71423;SDS011;59240;51.370;-0.486;2023-02-23T05:24:38;7.57;;;2.30;;
71423;SDS011;59240;51.370;-0.486;2023-02-23T05:27:06;7.85;;;2.45;;
71423;SDS011;59240;51.370;-0.486;2023-02-23T05:29:34;7.93;;;2.37;;
71423;SDS011;59240;51.370;-0.486;2023-02-23T05:32:00;6.68;;;2.40;;
71423;SDS011;59240;51.370;-0.486;2023-02-23T05:34:27;5.32;;;1.40;;
71423;SDS011;59240;51.370;-0.486;2023-02-23T05:36:57;9.20;;;2.10;;
71423;SDS011;59240;51.370;-0.486;2023-02-23T05:39:36;9.77;;;1.92;;
71423;SDS011;59240;51.370;-0.486;2023-02-23T05:42:03;7.77;;;1.87;;
71423;SDS011;59240;51.370;-0.486;2023-02-23T05:44:29;7.45;;;2.03;;
71423;SDS011;59240;51.370;-0.486;2023-02-23T05:46:56;7.55;;;2.00;;
71423;SDS011;59240;51.370;-0.486;2023-02-23T05:49:23;6.28;;;2.08;;
71423;SDS011;59240;51.370;-0.486;2023-02-23T05:51:50;9.05;;;2.35;;
71423;SDS011;59240;51.370;-0.486;2023-02-23T05:54:17;5.57;;;1.80;;
71423;SDS011;59240;51.370;-0.486;2023-02-23T05:56:43;6.20;;;2.10;;
71423;SDS011;59240;51.370;-0.486;2023-02-23T05:59:12;8.43;;;2.67;;
71423;SDS011;59240;51.370;-0.486;2023-02-23T06:01:39;6.72;;;1.98;;
71423;SDS011;59240;51.370;-0.486;2023-02-23T06:04:07;8.20;;;2.10;;
71423;SDS011;59240;51.370;-0.486;2023-02-23T06:06:36;7.60;;;1.73;;
71423;SDS011;59240;51.370;-0.486;2023-02-23T06:09:03;5.38;;;1.58;;
71423;SDS011;59240;51.370;-0.486;2023-02-23T06:11:30;6.93;;;2.05;;
71423;SDS011;59240;51.370;-0.486;2023-02-23T06:20:48;6.33;;;1.67;;
71423;SDS011;59240;51.370;-0.486;2023-02-23T06:23:15;7.40;;;1.70;;
71423;SDS011;59240;51.370;-0.486;2023-02-23T06:25:42;6.68;;;1.42;;
71423;SDS011;59240;51.370;-0.486;2023-02-23T06:28:09;5.40;;;1.38;;
71423;SDS011;59240;51.370;-0.486;2023-02-23T06:30:39;6.53;;;1.27;;
71423;SDS011;59240;51.370;-0.486;2023-02-23T06:33:06;7.40;;;1.70;;
71423;SDS011;59240;51.370;-0.486;2023-02-23T06:35:33;6.90;;;1.88;;
71423;SDS011;59240;51.370;-0.486;2023-02-23T06:38:02;6.22;;;1.67;;
71423;SDS011;59240;51.370;-0.486;2023-02-23T06:40:32;4.97;;;1.40;;
71423;SDS011;59240;51.370;-0.486;2023-02-23T06:43:03;7.07;;;1.55;;
71423;SDS011;59240;51.370;-0.486;2023-02-23T06:45:33;6.70;;;2.20;;
71423;SDS011;59240;51.370;-0.486;2023-02-23T06:48:00;6.63;;;1.52;;
71423;SDS011;59240;51.370;-0.486;2023-02-23T06:50:27;5.78;;;1.50;;
71423;SDS011;59240;51.370;-0.486;2023-02-23T06:52:57;6.82;;;1.52;;
71423;SDS011;59240;51.370;-0.486;2023-02-23T06:55:24;8.02;;;2.20;;
71423;SDS011;59240;51.370;-0.486;2023-02-23T06:57:51;7.53;;;1.80;;
71423;SDS011;59240;51.370;-0.486;2023-02-23T07:00:28;6.25;;;1.65;;
71423;SDS011;59240;51.370;-0.486;2023-02-23T07:26:06;5.82;;;0.60;;
71423;SDS011;59240;51.370;-0.486;2023-02-23T07:28:32;4.10;;;0.38;;
71423;SDS011;59240;51.370;-0.486;2023-02-23T07:31:03;3.57;;;0.47;;
71423;SDS011;59240;51.370;-0.486;2023-02-23T07:33:30;5.38;;;0.75;;
71423;SDS011;59240;51.370;-0.486;2023-02-23T07:36:02;5.03;;;0.70;;
71423;SDS011;59240;51.370;-0.486;2023-02-23T07:38:30;7.65;;;0.90;;
71423;SDS011;59240;51.370;-0.486;2023-02-23T07:40:56;4.47;;;0.90;;
71423;SDS011;59240;51.370;-0.486;2023-02-23T07:43:26;6.93;;;0.93;;
71423;SDS011;59240;51.370;-0.486;2023-02-23T07:45:59;2.03;;;0.28;;
71423;SDS011;59240;51.370;-0.486;2023-02-23T07:48:29;5.32;;;0.55;;
71423;SDS011;59240;51.370;-0.486;2023-02-23T07:50:56;8.85;;;0.95;;
71423;SDS011;59240;51.370;-0.486;2023-02-23T07:53:27;7.13;;;0.60;;
71423;SDS011;59240;51.370;-0.486;2023-02-23T07:56:13;5.80;;;0.70;;
71423;SDS011;59240;51.370;-0.486;2023-02-23T07:58:41;5.57;;;0.70;;
71423;SDS011;59240;51.370;-0.486;2023-02-23T08:01:26;5.20;;;0.40;;
71423;SDS011;59240;51.370;-0.486;2023-02-23T08:03:56;8.38;;;0.70;;
71423;SDS011;59240;51.370;-0.486;2023-02-23T08:07:00;4.07;;;0.50;;
71423;SDS011;59240;51.370;-0.486;2023-02-23T08:10:14;5.17;;;0.33;;
71423;SDS011;59240;51.370;-0.486;2023-02-23T08:12:41;5.80;;;0.63;;
71423;SDS011;59240;51.370;-0.486;2023-02-23T08:15:29;5.55;;;0.52;;
71423;SDS011;59240;51.370;-0.486;2023-02-23T08:18:10;4.95;;;0.50;;
71423;SDS011;59240;51.370;-0.486;2023-02-23T08:21:00;4.20;;;0.40;;
71423;SDS011;59240;51.370;-0.486;2023-02-23T08:24:14;2.40;;;0.30;;
71423;SDS011;59240;51.370;-0.486;2023-02-23T08:26:48;2.30;;;0.40;;
71423;SDS011;59240;51.370;-0.486;2023-02-23T08:29:15;3.75;;;0.20;;
71423;SDS011;59240;51.370;-0.486;2023-02-23T08:31:43;4.80;;;0.40;;
71423;SDS011;59240;51.370;-0.486;2023-02-23T08:34:10;2.88;;;0.30;;
71423;SDS011;59240;51.370;-0.486;2023-02-23T08:37:28;5.53;;;0.60;;
71423;SDS011;59240;51.370;-0.486;2023-02-23T08:40:05;2.42;;;0.30;;
71423;SDS011;59240;51.370;-0.486;2023-02-23T08:42:33;4.95;;;0.57;;
71423;SDS011;59240;51.370;-0.486;2023-02-23T08:45:06;4.18;;;0.55;;
71423;SDS011;59240;51.370;-0.486;2023-02-23T08:50:49;2.77;;;0.30;;
71423;SDS011;59240;51.370;-0.486;2023-02-23T08:53:24;2.42;;;0.30;;
71423;SDS011;59240;51.370;-0.486;2023-02-23T08:56:04;2.40;;;0.28;;
71423;SDS011;59240;51.370;-0.486;2023-02-23T08:58:32;2.22;;;0.30;;
71423;SDS011;59240;51.370;-0.486;2023-02-23T09:01:18;4.97;;;0.25;;
71423;SDS011;59240;51.370;-0.486;2023-02-23T09:26:46;5.72;;;0.20;;
71423;SDS011;59240;51.370;-0.486;2023-02-23T09:29:33;3.03;;;0.30;;
71423;SDS011;59240;51.370;-0.486;2023-02-23T09:32:14;3.75;;;0.28;;
71423;SDS011;59240;51.370;-0.486;2023-02-23T09:34:54;4.78;;;0.40;;
71423;SDS011;59240;51.370;-0.486;2023-02-23T09:37:34;4.90;;;0.40;;
71423;SDS011;59240;51.370;-0.486;2023-02-23T09:40:43;3.83;;;0.20;;
71423;SDS011;59240;51.370;-0.486;2023-02-23T09:59:21;3.67;;;0.20;;
71423;SDS011;59240;51.370;-0.486;2023-02-23T10:09:13;2.30;;;0.10;;
71423;SDS011;59240;51.370;-0.486;2023-02-23T10:30:32;3.17;;;0.30;;
71423;SDS011;59240;51.370;-0.486;2023-02-23T10:34:12;6.35;;;0.43;;
71423;SDS011;59240;51.370;-0.486;2023-02-23T10:36:57;7.57;;;0.77;;
71423;SDS011;59240;51.370;-0.486;2023-02-23T10:40:05;6.07;;;0.57;;
71423;SDS011;59240;51.370;-0.486;2023-02-23T10:45:36;2.47;;;0.30;;
71423;SDS011;59240;51.370;-0.486;2023-02-23T10:48:13;6.10;;;0.65;;
71423;SDS011;59240;51.370;-0.486;2023-02-23T11:00:54;3.10;;;0.40;;
71423;SDS011;59240;51.370;-0.486;2023-02-23T11:04:11;8.10;;;1.00;;
71423;SDS011;59240;51.370;-0.486;2023-02-23T11:07:14;5.68;;;0.43;;
71423;SDS011;59240;51.370;-0.486;2023-02-23T11:09:43;5.63;;;0.68;;
71423;SDS011;59240;51.370;-0.486;2023-02-23T11:21:38;5.40;;;0.60;;
71423;SDS011;59240;51.370;-0.486;2023-02-23T11:24:31;3.67;;;0.20;;
71423;SDS011;59240;51.370;-0.486;2023-02-23T12:34:00;8.30;;;0.40;;
71423;SDS011;59240;51.370;-0.486;2023-02-23T12:36:44;3.55;;;0.30;;
71423;SDS011;59240;51.370;-0.486;2023-02-23T12:39:46;8.00;;;0.38;;
71423;SDS011;59240;51.370;-0.486;2023-02-23T12:52:28;6.13;;;0.85;;
71423;SDS011;59240;51.370;-0.486;2023-02-23T13:05:31;3.35;;;0.30;;
71423;SDS011;59240;51.370;-0.486;2023-02-23T13:27:59;5.03;;;0.40;;
71423;SDS011;59240;51.370;-0.486;2023-02-23T13:30:29;1.90;;;0.10;;
71423;SDS011;59240;51.370;-0.486;2023-02-23T13:33:40;2.70;;;0.50;;
71423;SDS011;59240;51.370;-0.486;2023-02-23T13:58:51;5.13;;;0.88;;
71423;SDS011;59240;51.370;-0.486;2023-02-23T14:17:58;6.10;;;0.57;;
71423;SDS011;59240;51.370;-0.486;2023-02-23T14:21:33;6.32;;;0.80;;
71423;SDS011;59240;51.370;-0.486;2023-02-23T14:24:37;6.90;;;0.55;;
71423;SDS011;59240;51.370;-0.486;2023-02-23T14:28:38;5.17;;;0.60;;
71423;SDS011;59240;51.370;-0.486;2023-02-23T14:41:11;6.40;;;0.60;;
71423;SDS011;59240;51.370;-0.486;2023-02-23T14:55:12;8.48;;;0.57;;
71423;SDS011;59240;51.370;-0.486;2023-02-23T14:57:45;10.07;;;0.95;;
71423;SDS011;59240;51.370;-0.486;2023-02-23T15:00:25;13.40;;;1.80;;
71423;SDS011;59240;51.370;-0.486;2023-02-23T15:03:41;13.85;;;1.00;;
71423;SDS011;59240;51.370;-0.486;2023-02-23T15:09:34;16.70;;;1.50;;
71423;SDS011;59240;51.370;-0.486;2023-02-23T15:15:26;16.73;;;1.37;;
71423;SDS011;59240;51.370;-0.486;2023-02-23T15:17:57;10.77;;;1.05;;
71423;SDS011;59240;51.370;-0.486;2023-02-23T15:20:31;7.82;;;0.77;;
71423;SDS011;59240;51.370;-0.486;2023-02-23T15:23:12;13.80;;;1.40;;
71423;SDS011;59240;51.370;-0.486;2023-02-23T15:27:21;14.73;;;1.50;;
71423;SDS011;59240;51.370;-0.486;2023-02-23T15:33:19;10.73;;;0.80;;
71423;SDS011;59240;51.370;-0.486;2023-02-23T15:40:15;13.25;;;1.42;;
71423;SDS011;59240;51.370;-0.486;2023-02-23T15:44:04;9.82;;;1.33;;
71423;SDS011;59240;51.370;-0.486;2023-02-23T15:46:58;7.37;;;1.00;;
71423;SDS011;59240;51.370;-0.486;2023-02-23T15:49:35;9.43;;;1.02;;
71423;SDS011;59240;51.370;-0.486;2023-02-23T15:52:16;7.55;;;0.75;;
71423;SDS011;59240;51.370;-0.486;2023-02-23T15:54:59;11.68;;;0.55;;
71423;SDS011;59240;51.370;-0.486;2023-02-23T15:57:59;9.60;;;0.77;;
71423;SDS011;59240;51.370;-0.486;2023-02-23T16:00:53;11.20;;;1.17;;
71423;SDS011;59240;51.370;-0.486;2023-02-23T16:03:53;10.70;;;1.10;;
71423;SDS011;59240;51.370;-0.486;2023-02-23T16:06:29;8.60;;;1.17;;
71423;SDS011;59240;51.370;-0.486;2023-02-23T16:13:00;8.43;;;0.90;;
71423;SDS011;59240;51.370;-0.486;2023-02-23T16:15:36;6.27;;;0.70;;
71423;SDS011;59240;51.370;-0.486;2023-02-23T16:18:39;7.82;;;1.20;;
71423;SDS011;59240;51.370;-0.486;2023-02-23T16:25:51;11.13;;;1.42;;
71423;SDS011;59240;51.370;-0.486;2023-02-23T16:28:45;10.98;;;1.08;;
71423;SDS011;59240;51.370;-0.486;2023-02-23T16:31:24;11.53;;;1.33;;
71423;SDS011;59240;51.370;-0.486;2023-02-23T16:38:19;15.35;;;1.00;;
71423;SDS011;59240;51.370;-0.486;2023-02-23T16:40:48;8.95;;;0.88;;
71423;SDS011;59240;51.370;-0.486;2023-02-23T16:46:19;11.40;;;1.07;;
71423;SDS011;59240;51.370;-0.486;2023-02-23T16:49:17;10.48;;;0.98;;
71423;SDS011;59240;51.370;-0.486;2023-02-23T16:51:54;9.75;;;1.42;;
71423;SDS011;59240;51.370;-0.486;2023-02-23T16:54:33;13.40;;;0.90;;
71423;SDS011;59240;51.370;-0.486;2023-02-23T17:01:18;12.03;;;1.00;;
71423;SDS011;59240;51.370;-0.486;2023-02-23T17:04:26;10.63;;;0.90;;
71423;SDS011;59240;51.370;-0.486;2023-02-23T17:06:58;9.82;;;1.58;;
71423;SDS011;59240;51.370;-0.486;2023-02-23T17:09:42;16.38;;;1.45;;
71423;SDS011;59240;51.370;-0.486;2023-02-23T17:12:59;8.73;;;0.95;;
71423;SDS011;59240;51.370;-0.486;2023-02-23T17:16:13;10.67;;;0.93;;
71423;SDS011;59240;51.370;-0.486;2023-02-23T19:12:17;8.27;;;0.80;;
71423;SDS011;59240;51.370;-0.486;2023-02-23T19:16:17;14.38;;;1.20;;
71423;SDS011;59240;51.370;-0.486;2023-02-23T19:19:01;16.33;;;1.90;;
71423;SDS011;59240;51.370;-0.486;2023-02-23T19:21:32;11.70;;;1.20;;
71423;SDS011;59240;51.370;-0.486;2023-02-23T19:25:02;9.45;;;1.30;;
71423;SDS011;59240;51.370;-0.486;2023-02-23T19:28:38;11.95;;;1.20;;
71423;SDS011;59240;51.370;-0.486;2023-02-23T19:32:16;9.45;;;1.20;;
71423;SDS011;59240;51.370;-0.486;2023-02-23T19:35:50;10.50;;;1.07;;
71423;SDS011;59240;51.370;-0.486;2023-02-23T19:38:26;9.27;;;1.17;;
71423;SDS011;59240;51.370;-0.486;2023-02-23T19:42:08;16.58;;;1.65;;
71423;SDS011;59240;51.370;-0.486;2023-02-23T19:45:28;10.38;;;1.67;;
71423;SDS011;59240;51.370;-0.486;2023-02-23T19:47:58;9.30;;;1.20;;
71423;SDS011;59240;51.370;-0.486;2023-02-23T19:51:25;10.90;;;1.37;;
71423;SDS011;59240;51.370;-0.486;2023-02-23T19:55:17;17.08;;;1.92;;
71423;SDS011;59240;51.370;-0.486;2023-02-23T19:58:34;9.90;;;1.30;;
71423;SDS011;59240;51.370;-0.486;2023-02-23T20:01:47;14.05;;;1.58;;
71423;SDS011;59240;51.370;-0.486;2023-02-23T20:13:46;12.40;;;1.98;;
71423;SDS011;59240;51.370;-0.486;2023-02-23T20:41:48;9.00;;;1.80;;
71423;SDS011;59240;51.370;-0.486;2023-02-23T20:49:11;13.83;;;3.17;;
71423;SDS011;59240;51.370;-0.486;2023-02-23T20:52:33;18.25;;;2.78;;
